sensor_id;sensor_type;location;lat;lon;timestamp;temperature;humidity
8459;DHT22;4266;48.816;9.154;2022-09-01T00:01:29;14.70;99.90
8459;DHT22;4266;48.816;9.154;2022-09-01T00:03:56;14.70;99.90
8459;DHT22;4266;48.816;9.154;2022-09-01T00:06:22;14.60;99.90
8459;DHT22;4266;48.816;9.154;2022-09-01T00:08:48;14.50;99.90
8459;DHT22;4266;48.816;9.154;2022-09-01T00:11:14;14.50;99.90
8459;DHT22;4266;48.816;9.154;2022-09-01T00:13:39;14.50;99.90
8459;DHT22;4266;48.816;9.154;2022-09-01T00:16:05;14.50;99.90
8459;DHT22;4266;48.816;9.154;2022-09-01T00:18:31;14.40;99.90
8459;DHT22;4266;48.816;9.154;2022-09-01T00:20:58;14.40;99.90
8459;DHT22;4266;48.816;9.154;2022-09-01T00:23:23;14.30;99.90
8459;DHT22;4266;48.816;9.154;2022-09-01T00:25:49;14.40;99.90
8459;DHT22;4266;48.816;9.154;2022-09-01T00:28:15;14.40;99.90
8459;DHT22;4266;48.816;9.154;2022-09-01T00:30:41;14.40;99.90
8459;DHT22;4266;48.816;9.154;2022-09-01T00:33:07;14.40;99.90
8459;DHT22;4266;48.816;9.154;2022-09-01T00:35:33;14.30;99.90
8459;DHT22;4266;48.816;9.154;2022-09-01T00:37:58;14.30;99.90
8459;DHT22;4266;48.816;9.154;2022-09-01T00:40:24;14.30;99.90
8459;DHT22;4266;48.816;9.154;2022-09-01T00:42:50;14.30;99.90
8459;DHT22;4266;48.816;9.154;2022-09-01T00:45:15;14.30;99.90
8459;DHT22;4266;48.816;9.154;2022-09-01T00:47:42;14.20;99.90
8459;DHT22;4266;48.816;9.154;2022-09-01T00:50:17;14.20;99.90
8459;DHT22;4266;48.816;9.154;2022-09-01T00:52:45;14.20;99.90
8459;DHT22;4266;48.816;9.154;2022-09-01T00:55:14;14.10;99.90
8459;DHT22;4266;48.816;9.154;2022-09-01T00:57:38;14.10;99.90
8459;DHT22;4266;48.816;9.154;2022-09-01T01:00:08;14.10;99.90
8459;DHT22;4266;48.816;9.154;2022-09-01T01:02:32;14.10;99.90
8459;DHT22;4266;48.816;9.154;2022-09-01T01:04:58;14.00;99.90
8459;DHT22;4266;48.816;9.154;2022-09-01T01:07:23;14.10;99.90
8459;DHT22;4266;48.816;9.154;2022-09-01T01:09:49;14.10;99.90
8459;DHT22;4266;48.816;9.154;2022-09-01T01:12:15;14.00;99.90
8459;DHT22;4266;48.816;9.154;2022-09-01T01:14:41;14.00;99.90
8459;DHT22;4266;48.816;9.154;2022-09-01T01:17:06;14.00;99.90
8459;DHT22;4266;48.816;9.154;2022-09-01T01:19:39;14.00;99.90
8459;DHT22;4266;48.816;9.154;2022-09-01T01:22:09;14.00;99.90
8459;DHT22;4266;48.816;9.154;2022-09-01T01:24:49;14.00;99.90
8459;DHT22;4266;48.816;9.154;2022-09-01T01:27:14;14.00;99.90
8459;DHT22;4266;48.816;9.154;2022-09-01T01:29:40;14.00;99.90
8459;DHT22;4266;48.816;9.154;2022-09-01T01:32:06;14.00;99.90
8459;DHT22;4266;48.816;9.154;2022-09-01T01:34:31;13.90;99.90
8459;DHT22;4266;48.816;9.154;2022-09-01T01:36:57;13.90;99.90
8459;DHT22;4266;48.816;9.154;2022-09-01T01:39:23;13.80;99.90
8459;DHT22;4266;48.816;9.154;2022-09-01T01:41:48;13.80;99.90
8459;DHT22;4266;48.816;9.154;2022-09-01T01:44:16;13.80;99.90
8459;DHT22;4266;48.816;9.154;2022-09-01T01:46:42;13.80;99.90
8459;DHT22;4266;48.816;9.154;2022-09-01T01:49:06;13.80;99.90
8459;DHT22;4266;48.816;9.154;2022-09-01T01:51:32;13.70;99.90
8459;DHT22;4266;48.816;9.154;2022-09-01T01:53:58;13.70;99.90
8459;DHT22;4266;48.816;9.154;2022-09-01T01:56:23;13.60;99.90
8459;DHT22;4266;48.816;9.154;2022-09-01T01:58:49;13.60;99.90
8459;DHT22;4266;48.816;9.154;2022-09-01T02:01:15;13.50;99.90
8459;DHT22;4266;48.816;9.154;2022-09-01T02:03:41;13.50;99.90
8459;DHT22;4266;48.816;9.154;2022-09-01T02:06:08;13.50;99.90
8459;DHT22;4266;48.816;9.154;2022-09-01T02:08:33;13.50;99.90
8459;DHT22;4266;48.816;9.154;2022-09-01T02:10:59;13.50;99.90
8459;DHT22;4266;48.816;9.154;2022-09-01T02:13:24;13.50;99.90
8459;DHT22;4266;48.816;9.154;2022-09-01T02:15:51;13.50;99.90
8459;DHT22;4266;48.816;9.154;2022-09-01T02:18:17;13.50;99.90
8459;DHT22;4266;48.816;9.154;2022-09-01T02:20:41;13.50;99.90
8459;DHT22;4266;48.816;9.154;2022-09-01T02:23:08;13.40;99.90
8459;DHT22;4266;48.816;9.154;2022-09-01T02:25:34;13.40;99.90
8459;DHT22;4266;48.816;9.154;2022-09-01T02:28:00;13.40;99.90
8459;DHT22;4266;48.816;9.154;2022-09-01T02:30:25;13.30;99.90
8459;DHT22;4266;48.816;9.154;2022-09-01T02:32:52;13.30;99.90
8459;DHT22;4266;48.816;9.154;2022-09-01T02:35:18;13.30;99.90
8459;DHT22;4266;48.816;9.154;2022-09-01T02:37:43;13.30;99.90
8459;DHT22;4266;48.816;9.154;2022-09-01T02:40:10;13.40;99.90
8459;DHT22;4266;48.816;9.154;2022-09-01T02:42:36;13.30;99.90
8459;DHT22;4266;48.816;9.154;2022-09-01T02:45:02;13.20;99.90
8459;DHT22;4266;48.816;9.154;2022-09-01T02:47:29;13.30;99.90
8459;DHT22;4266;48.816;9.154;2022-09-01T02:49:54;13.30;99.90
8459;DHT22;4266;48.816;9.154;2022-09-01T02:52:21;13.30;99.90
8459;DHT22;4266;48.816;9.154;2022-09-01T02:54:46;13.30;99.90
8459;DHT22;4266;48.816;9.154;2022-09-01T02:57:12;13.30;99.90
8459;DHT22;4266;48.816;9.154;2022-09-01T02:59:38;13.30;99.90
8459;DHT22;4266;48.816;9.154;2022-09-01T03:02:04;13.20;99.90
8459;DHT22;4266;48.816;9.154;2022-09-01T03:04:30;13.20;99.90
8459;DHT22;4266;48.816;9.154;2022-09-01T03:06:55;13.10;99.90
8459;DHT22;4266;48.816;9.154;2022-09-01T03:09:21;13.10;99.90
8459;DHT22;4266;48.816;9.154;2022-09-01T03:11:47;13.20;99.90
8459;DHT22;4266;48.816;9.154;2022-09-01T03:14:12;13.20;99.90
8459;DHT22;4266;48.816;9.154;2022-09-01T03:16:38;13.20;99.90
8459;DHT22;4266;48.816;9.154;2022-09-01T03:19:04;13.10;99.90
8459;DHT22;4266;48.816;9.154;2022-09-01T03:21:29;13.10;99.90
8459;DHT22;4266;48.816;9.154;2022-09-01T03:23:55;13.00;99.90
8459;DHT22;4266;48.816;9.154;2022-09-01T03:26:21;13.00;99.90
8459;DHT22;4266;48.816;9.154;2022-09-01T03:28:47;13.00;99.90
8459;DHT22;4266;48.816;9.154;2022-09-01T03:31:12;13.00;99.90
8459;DHT22;4266;48.816;9.154;2022-09-01T03:33:38;13.00;99.90
8459;DHT22;4266;48.816;9.154;2022-09-01T03:36:04;13.00;99.90
8459;DHT22;4266;48.816;9.154;2022-09-01T03:38:30;13.00;99.90
8459;DHT22;4266;48.816;9.154;2022-09-01T03:40:59;12.90;99.90
8459;DHT22;4266;48.816;9.154;2022-09-01T03:43:23;12.90;99.90
8459;DHT22;4266;48.816;9.154;2022-09-01T03:46:05;12.90;99.90
8459;DHT22;4266;48.816;9.154;2022-09-01T03:48:30;12.90;99.90
8459;DHT22;4266;48.816;9.154;2022-09-01T03:50:57;12.90;99.90
8459;DHT22;4266;48.816;9.154;2022-09-01T03:53:22;12.90;99.90
8459;DHT22;4266;48.816;9.154;2022-09-01T03:55:48;12.90;99.90
8459;DHT22;4266;48.816;9.154;2022-09-01T03:58:15;12.90;99.90
8459;DHT22;4266;48.816;9.154;2022-09-01T04:00:41;12.90;99.90
8459;DHT22;4266;48.816;9.154;2022-09-01T04:03:06;12.90;99.90
8459;DHT22;4266;48.816;9.154;2022-09-01T04:05:32;13.00;99.90
8459;DHT22;4266;48.816;9.154;2022-09-01T04:07:58;12.90;99.90
8459;DHT22;4266;48.816;9.154;2022-09-01T04:10:23;12.90;99.90
8459;DHT22;4266;48.816;9.154;2022-09-01T04:12:49;12.80;99.90
8459;DHT22;4266;48.816;9.154;2022-09-01T04:15:15;12.80;99.90
8459;DHT22;4266;48.816;9.154;2022-09-01T04:17:44;12.70;99.90
8459;DHT22;4266;48.816;9.154;2022-09-01T04:20:16;12.80;99.90
8459;DHT22;4266;48.816;9.154;2022-09-01T04:22:41;12.70;99.90
8459;DHT22;4266;48.816;9.154;2022-09-01T04:25:08;13.00;99.90
8459;DHT22;4266;48.816;9.154;2022-09-01T04:27:33;12.90;99.90
8459;DHT22;4266;48.816;9.154;2022-09-01T04:30:00;12.90;99.90
8459;DHT22;4266;48.816;9.154;2022-09-01T04:32:25;12.80;99.90
8459;DHT22;4266;48.816;9.154;2022-09-01T04:34:51;12.90;99.90
8459;DHT22;4266;48.816;9.154;2022-09-01T04:37:18;12.90;99.90
8459;DHT22;4266;48.816;9.154;2022-09-01T04:39:49;12.80;99.90
8459;DHT22;4266;48.816;9.154;2022-09-01T04:42:14;12.80;99.90
8459;DHT22;4266;48.816;9.154;2022-09-01T04:44:39;12.90;99.90
8459;DHT22;4266;48.816;9.154;2022-09-01T04:47:05;12.80;99.90
8459;DHT22;4266;48.816;9.154;2022-09-01T04:49:31;12.80;99.90
8459;DHT22;4266;48.816;9.154;2022-09-01T04:51:56;12.90;99.90
8459;DHT22;4266;48.816;9.154;2022-09-01T04:54:22;12.90;99.90
8459;DHT22;4266;48.816;9.154;2022-09-01T04:56:48;12.80;99.90
8459;DHT22;4266;48.816;9.154;2022-09-01T04:59:13;12.80;99.90
8459;DHT22;4266;48.816;9.154;2022-09-01T05:01:39;12.90;99.90
8459;DHT22;4266;48.816;9.154;2022-09-01T05:04:08;13.00;99.90
8459;DHT22;4266;48.816;9.154;2022-09-01T05:06:34;13.10;99.90
8459;DHT22;4266;48.816;9.154;2022-09-01T05:08:59;13.10;99.90
8459;DHT22;4266;48.816;9.154;2022-09-01T05:11:25;13.30;99.90
8459;DHT22;4266;48.816;9.154;2022-09-01T05:13:51;13.40;99.90
8459;DHT22;4266;48.816;9.154;2022-09-01T05:16:18;13.50;99.90
8459;DHT22;4266;48.816;9.154;2022-09-01T05:18:44;13.60;99.90
8459;DHT22;4266;48.816;9.154;2022-09-01T05:21:10;13.70;99.90
8459;DHT22;4266;48.816;9.154;2022-09-01T05:23:37;13.70;99.90
8459;DHT22;4266;48.816;9.154;2022-09-01T05:26:01;13.70;99.90
8459;DHT22;4266;48.816;9.154;2022-09-01T05:28:27;13.90;99.90
8459;DHT22;4266;48.816;9.154;2022-09-01T05:30:54;14.20;99.90
8459;DHT22;4266;48.816;9.154;2022-09-01T05:33:19;14.10;99.90
8459;DHT22;4266;48.816;9.154;2022-09-01T05:35:52;14.50;99.90
8459;DHT22;4266;48.816;9.154;2022-09-01T05:38:16;14.50;99.90
8459;DHT22;4266;48.816;9.154;2022-09-01T05:40:42;14.70;99.90
8459;DHT22;4266;48.816;9.154;2022-09-01T05:43:09;15.00;99.90
8459;DHT22;4266;48.816;9.154;2022-09-01T05:45:34;15.10;99.90
8459;DHT22;4266;48.816;9.154;2022-09-01T05:48:00;15.00;99.90
8459;DHT22;4266;48.816;9.154;2022-09-01T05:50:26;15.20;99.90
8459;DHT22;4266;48.816;9.154;2022-09-01T05:52:51;14.90;99.90
8459;DHT22;4266;48.816;9.154;2022-09-01T05:55:18;14.90;99.90
8459;DHT22;4266;48.816;9.154;2022-09-01T05:57:43;14.90;99.90
8459;DHT22;4266;48.816;9.154;2022-09-01T06:00:10;14.80;99.90
8459;DHT22;4266;48.816;9.154;2022-09-01T06:02:36;14.90;99.90
8459;DHT22;4266;48.816;9.154;2022-09-01T06:05:02;14.90;99.90
8459;DHT22;4266;48.816;9.154;2022-09-01T06:07:28;15.50;99.90
8459;DHT22;4266;48.816;9.154;2022-09-01T06:09:54;15.30;99.90
8459;DHT22;4266;48.816;9.154;2022-09-01T06:12:19;15.20;99.90
8459;DHT22;4266;48.816;9.154;2022-09-01T06:14:45;15.20;99.90
8459;DHT22;4266;48.816;9.154;2022-09-01T06:17:11;15.30;99.90
8459;DHT22;4266;48.816;9.154;2022-09-01T06:19:37;15.20;99.90
8459;DHT22;4266;48.816;9.154;2022-09-01T06:22:03;15.40;99.90
8459;DHT22;4266;48.816;9.154;2022-09-01T06:24:28;15.60;99.90
8459;DHT22;4266;48.816;9.154;2022-09-01T06:26:54;15.60;99.90
8459;DHT22;4266;48.816;9.154;2022-09-01T06:29:20;15.70;99.90
8459;DHT22;4266;48.816;9.154;2022-09-01T06:31:45;15.80;99.90
8459;DHT22;4266;48.816;9.154;2022-09-01T06:34:11;15.80;99.90
8459;DHT22;4266;48.816;9.154;2022-09-01T06:36:38;16.10;99.90
8459;DHT22;4266;48.816;9.154;2022-09-01T06:39:05;16.10;99.90
8459;DHT22;4266;48.816;9.154;2022-09-01T06:41:31;16.20;99.90
8459;DHT22;4266;48.816;9.154;2022-09-01T06:43:56;16.60;99.90
8459;DHT22;4266;48.816;9.154;2022-09-01T06:46:22;17.00;99.90
8459;DHT22;4266;48.816;9.154;2022-09-01T06:48:48;17.10;99.90
8459;DHT22;4266;48.816;9.154;2022-09-01T06:51:15;17.30;99.90
8459;DHT22;4266;48.816;9.154;2022-09-01T06:53:41;17.40;99.90
8459;DHT22;4266;48.816;9.154;2022-09-01T06:56:06;17.50;99.90
8459;DHT22;4266;48.816;9.154;2022-09-01T06:58:31;18.10;99.90
8459;DHT22;4266;48.816;9.154;2022-09-01T07:00:58;18.60;99.90
8459;DHT22;4266;48.816;9.154;2022-09-01T07:03:24;18.60;99.90
8459;DHT22;4266;48.816;9.154;2022-09-01T07:05:49;18.60;99.90
8459;DHT22;4266;48.816;9.154;2022-09-01T07:08:15;18.80;99.90
8459;DHT22;4266;48.816;9.154;2022-09-01T07:10:44;19.20;99.90
8459;DHT22;4266;48.816;9.154;2022-09-01T07:13:08;20.20;99.90
8459;DHT22;4266;48.816;9.154;2022-09-01T07:15:38;19.70;99.90
8459;DHT22;4266;48.816;9.154;2022-09-01T07:18:03;19.70;99.90
8459;DHT22;4266;48.816;9.154;2022-09-01T07:20:29;19.50;99.90
8459;DHT22;4266;48.816;9.154;2022-09-01T07:22:56;20.40;99.90
8459;DHT22;4266;48.816;9.154;2022-09-01T07:25:21;20.40;99.90
8459;DHT22;4266;48.816;9.154;2022-09-01T07:27:47;20.90;99.90
8459;DHT22;4266;48.816;9.154;2022-09-01T07:30:14;20.70;99.40
8459;DHT22;4266;48.816;9.154;2022-09-01T07:32:39;20.80;98.80
8459;DHT22;4266;48.816;9.154;2022-09-01T07:35:05;20.70;99.30
8459;DHT22;4266;48.816;9.154;2022-09-01T07:37:31;20.10;99.60
8459;DHT22;4266;48.816;9.154;2022-09-01T07:39:56;20.20;99.90
8459;DHT22;4266;48.816;9.154;2022-09-01T07:42:23;21.40;97.70
8459;DHT22;4266;48.816;9.154;2022-09-01T07:44:49;22.00;98.20
8459;DHT22;4266;48.816;9.154;2022-09-01T07:47:15;22.00;98.20
8459;DHT22;4266;48.816;9.154;2022-09-01T07:49:41;21.20;97.90
8459;DHT22;4266;48.816;9.154;2022-09-01T07:52:07;21.20;97.90
8459;DHT22;4266;48.816;9.154;2022-09-01T07:54:33;20.40;98.50
8459;DHT22;4266;48.816;9.154;2022-09-01T07:56:59;20.40;98.50
8459;DHT22;4266;48.816;9.154;2022-09-01T07:59:25;20.60;99.20
8459;DHT22;4266;48.816;9.154;2022-09-01T08:01:50;20.40;99.20
8459;DHT22;4266;48.816;9.154;2022-09-01T08:04:16;20.60;99.70
8459;DHT22;4266;48.816;9.154;2022-09-01T08:06:42;20.40;99.70
8459;DHT22;4266;48.816;9.154;2022-09-01T08:09:07;20.20;99.70
8459;DHT22;4266;48.816;9.154;2022-09-01T08:11:33;20.10;99.90
8459;DHT22;4266;48.816;9.154;2022-09-01T08:13:59;20.10;99.20
8459;DHT22;4266;48.816;9.154;2022-09-01T08:16:25;20.40;98.70
8459;DHT22;4266;48.816;9.154;2022-09-01T08:18:51;20.90;98.10
8459;DHT22;4266;48.816;9.154;2022-09-01T08:21:17;20.90;98.10
8459;DHT22;4266;48.816;9.154;2022-09-01T08:23:43;20.80;98.00
8459;DHT22;4266;48.816;9.154;2022-09-01T08:26:11;20.80;98.00
8459;DHT22;4266;48.816;9.154;2022-09-01T08:28:35;20.60;98.70
8459;DHT22;4266;48.816;9.154;2022-09-01T08:31:07;20.50;98.10
8459;DHT22;4266;48.816;9.154;2022-09-01T08:33:32;20.30;98.40
8459;DHT22;4266;48.816;9.154;2022-09-01T08:35:58;20.30;98.40
8459;DHT22;4266;48.816;9.154;2022-09-01T08:38:23;20.40;98.20
8459;DHT22;4266;48.816;9.154;2022-09-01T08:40:50;20.30;98.10
8459;DHT22;4266;48.816;9.154;2022-09-01T08:43:20;20.40;98.20
8459;DHT22;4266;48.816;9.154;2022-09-01T08:45:48;20.80;98.40
8459;DHT22;4266;48.816;9.154;2022-09-01T08:48:15;20.70;97.80
8459;DHT22;4266;48.816;9.154;2022-09-01T08:50:39;20.70;97.50
8459;DHT22;4266;48.816;9.154;2022-09-01T08:53:12;20.70;97.20
8459;DHT22;4266;48.816;9.154;2022-09-01T08:55:34;20.60;97.20
8459;DHT22;4266;48.816;9.154;2022-09-01T08:57:59;20.80;97.20
8459;DHT22;4266;48.816;9.154;2022-09-01T09:00:26;21.00;97.20
8459;DHT22;4266;48.816;9.154;2022-09-01T09:05:42;20.30;97.00
8459;DHT22;4266;48.816;9.154;2022-09-01T09:11:16;20.10;96.90
8459;DHT22;4266;48.816;9.154;2022-09-01T09:13:41;20.20;97.20
8459;DHT22;4266;48.816;9.154;2022-09-01T09:16:07;20.20;96.70
8459;DHT22;4266;48.816;9.154;2022-09-01T09:18:36;19.90;97.00
8459;DHT22;4266;48.816;9.154;2022-09-01T09:21:01;19.70;97.20
8459;DHT22;4266;48.816;9.154;2022-09-01T09:23:30;19.60;97.40
8459;DHT22;4266;48.816;9.154;2022-09-01T09:25:54;19.90;97.60
8459;DHT22;4266;48.816;9.154;2022-09-01T09:28:19;20.00;97.40
8459;DHT22;4266;48.816;9.154;2022-09-01T09:30:45;20.30;97.20
8459;DHT22;4266;48.816;9.154;2022-09-01T09:33:31;20.10;97.60
8459;DHT22;4266;48.816;9.154;2022-09-01T09:35:39;20.10;97.40
8459;DHT22;4266;48.816;9.154;2022-09-01T09:38:15;19.90;97.20
8459;DHT22;4266;48.816;9.154;2022-09-01T09:40:48;19.90;97.20
8459;DHT22;4266;48.816;9.154;2022-09-01T09:43:05;19.80;97.30
8459;DHT22;4266;48.816;9.154;2022-09-01T09:45:38;19.90;97.00
8459;DHT22;4266;48.816;9.154;2022-09-01T09:48:05;20.00;97.30
8459;DHT22;4266;48.816;9.154;2022-09-01T09:50:36;20.10;97.30
8459;DHT22;4266;48.816;9.154;2022-09-01T09:53:13;20.00;97.10
8459;DHT22;4266;48.816;9.154;2022-09-01T09:55:49;20.40;97.00
8459;DHT22;4266;48.816;9.154;2022-09-01T09:58:08;20.40;97.00
8459;DHT22;4266;48.816;9.154;2022-09-01T10:00:31;21.10;96.80
8459;DHT22;4266;48.816;9.154;2022-09-01T10:03:02;21.70;96.50
8459;DHT22;4266;48.816;9.154;2022-09-01T10:05:44;21.80;96.10
8459;DHT22;4266;48.816;9.154;2022-09-01T10:08:10;22.50;95.90
8459;DHT22;4266;48.816;9.154;2022-09-01T10:10:42;23.00;95.50
8459;DHT22;4266;48.816;9.154;2022-09-01T10:13:11;23.50;94.60
8459;DHT22;4266;48.816;9.154;2022-09-01T10:15:36;23.50;94.60
8459;DHT22;4266;48.816;9.154;2022-09-01T10:18:05;23.20;94.80
8459;DHT22;4266;48.816;9.154;2022-09-01T10:20:29;22.80;94.90
8459;DHT22;4266;48.816;9.154;2022-09-01T10:22:54;22.30;94.60
8459;DHT22;4266;48.816;9.154;2022-09-01T10:25:22;21.80;95.20
8459;DHT22;4266;48.816;9.154;2022-09-01T10:27:49;21.90;95.30
8459;DHT22;4266;48.816;9.154;2022-09-01T10:30:15;22.20;95.30
8459;DHT22;4266;48.816;9.154;2022-09-01T10:32:46;22.70;94.70
8459;DHT22;4266;48.816;9.154;2022-09-01T10:35:13;23.10;94.70
8459;DHT22;4266;48.816;9.154;2022-09-01T10:37:37;23.30;94.60
8459;DHT22;4266;48.816;9.154;2022-09-01T10:40:16;23.90;94.20
8459;DHT22;4266;48.816;9.154;2022-09-01T10:42:41;23.80;93.90
8459;DHT22;4266;48.816;9.154;2022-09-01T10:45:15;23.40;94.40
8459;DHT22;4266;48.816;9.154;2022-09-01T10:47:32;23.40;94.40
8459;DHT22;4266;48.816;9.154;2022-09-01T10:50:00;23.80;93.60
8459;DHT22;4266;48.816;9.154;2022-09-01T10:52:57;23.90;93.50
8459;DHT22;4266;48.816;9.154;2022-09-01T10:55:24;24.00;93.30
8459;DHT22;4266;48.816;9.154;2022-09-01T10:57:59;23.90;93.30
8459;DHT22;4266;48.816;9.154;2022-09-01T11:00:43;24.50;93.10
8459;DHT22;4266;48.816;9.154;2022-09-01T11:03:35;24.70;92.60
8459;DHT22;4266;48.816;9.154;2022-09-01T11:06:02;24.90;92.10
8459;DHT22;4266;48.816;9.154;2022-09-01T11:08:44;24.60;92.70
8459;DHT22;4266;48.816;9.154;2022-09-01T11:11:24;24.80;92.50
8459;DHT22;4266;48.816;9.154;2022-09-01T11:13:48;24.20;92.30
8459;DHT22;4266;48.816;9.154;2022-09-01T11:16:28;24.10;92.60
8459;DHT22;4266;48.816;9.154;2022-09-01T11:18:53;23.90;92.60
8459;DHT22;4266;48.816;9.154;2022-09-01T11:21:22;23.70;92.60
8459;DHT22;4266;48.816;9.154;2022-09-01T11:23:47;23.30;92.50
8459;DHT22;4266;48.816;9.154;2022-09-01T11:28:52;22.90;92.70
8459;DHT22;4266;48.816;9.154;2022-09-01T11:31:21;22.90;92.70
8459;DHT22;4266;48.816;9.154;2022-09-01T11:36:35;23.70;92.50
8459;DHT22;4266;48.816;9.154;2022-09-01T11:39:08;24.00;92.40
8459;DHT22;4266;48.816;9.154;2022-09-01T11:41:43;23.90;92.10
8459;DHT22;4266;48.816;9.154;2022-09-01T11:44:01;26.30;91.20
8459;DHT22;4266;48.816;9.154;2022-09-01T11:46:29;26.30;91.20
8459;DHT22;4266;48.816;9.154;2022-09-01T11:48:54;28.40;90.60
8459;DHT22;4266;48.816;9.154;2022-09-01T11:51:19;28.10;87.30
8459;DHT22;4266;48.816;9.154;2022-09-01T11:53:45;27.50;86.40
8459;DHT22;4266;48.816;9.154;2022-09-01T11:56:15;26.80;86.80
8459;DHT22;4266;48.816;9.154;2022-09-01T11:58:39;26.80;86.90
8459;DHT22;4266;48.816;9.154;2022-09-01T12:01:11;26.30;87.40
8459;DHT22;4266;48.816;9.154;2022-09-01T12:03:35;26.60;88.00
8459;DHT22;4266;48.816;9.154;2022-09-01T12:06:02;26.40;87.50
8459;DHT22;4266;48.816;9.154;2022-09-01T12:08:29;26.30;87.50
8459;DHT22;4266;48.816;9.154;2022-09-01T12:11:03;25.80;88.30
8459;DHT22;4266;48.816;9.154;2022-09-01T12:13:27;25.10;89.00
8459;DHT22;4266;48.816;9.154;2022-09-01T12:15:56;24.90;90.20
8459;DHT22;4266;48.816;9.154;2022-09-01T12:18:21;25.00;90.20
8459;DHT22;4266;48.816;9.154;2022-09-01T12:20:47;25.40;90.60
8459;DHT22;4266;48.816;9.154;2022-09-01T12:23:17;25.30;90.60
8459;DHT22;4266;48.816;9.154;2022-09-01T12:25:42;25.20;89.80
8459;DHT22;4266;48.816;9.154;2022-09-01T12:28:07;25.10;89.90
8459;DHT22;4266;48.816;9.154;2022-09-01T12:30:33;25.10;89.90
8459;DHT22;4266;48.816;9.154;2022-09-01T12:33:01;25.20;88.90
8459;DHT22;4266;48.816;9.154;2022-09-01T12:35:25;24.90;89.40
8459;DHT22;4266;48.816;9.154;2022-09-01T12:37:51;25.10;88.70
8459;DHT22;4266;48.816;9.154;2022-09-01T12:40:22;25.00;88.20
8459;DHT22;4266;48.816;9.154;2022-09-01T12:42:49;24.70;87.50
8459;DHT22;4266;48.816;9.154;2022-09-01T12:45:14;24.60;88.70
8459;DHT22;4266;48.816;9.154;2022-09-01T12:47:43;24.50;89.30
8459;DHT22;4266;48.816;9.154;2022-09-01T12:50:33;24.10;88.10
8459;DHT22;4266;48.816;9.154;2022-09-01T12:53:00;24.10;88.00
8459;DHT22;4266;48.816;9.154;2022-09-01T12:55:30;23.90;86.50
8459;DHT22;4266;48.816;9.154;2022-09-01T12:57:58;24.10;86.40
8459;DHT22;4266;48.816;9.154;2022-09-01T13:00:27;24.10;87.10
8459;DHT22;4266;48.816;9.154;2022-09-01T13:03:12;24.10;87.00
8459;DHT22;4266;48.816;9.154;2022-09-01T13:05:40;24.70;87.00
8459;DHT22;4266;48.816;9.154;2022-09-01T13:08:06;24.30;86.40
8459;DHT22;4266;48.816;9.154;2022-09-01T13:10:33;24.50;87.30
8459;DHT22;4266;48.816;9.154;2022-09-01T13:12:57;24.50;87.30
8459;DHT22;4266;48.816;9.154;2022-09-01T13:15:23;24.80;86.70
8459;DHT22;4266;48.816;9.154;2022-09-01T13:17:48;24.70;86.80
8459;DHT22;4266;48.816;9.154;2022-09-01T13:20:15;24.20;86.40
8459;DHT22;4266;48.816;9.154;2022-09-01T13:22:41;24.20;86.30
8459;DHT22;4266;48.816;9.154;2022-09-01T13:25:07;24.30;86.70
8459;DHT22;4266;48.816;9.154;2022-09-01T13:27:33;24.30;86.70
8459;DHT22;4266;48.816;9.154;2022-09-01T13:29:58;24.50;86.60
8459;DHT22;4266;48.816;9.154;2022-09-01T13:32:25;24.20;87.60
8459;DHT22;4266;48.816;9.154;2022-09-01T13:34:51;24.20;87.60
8459;DHT22;4266;48.816;9.154;2022-09-01T13:37:16;24.00;87.60
8459;DHT22;4266;48.816;9.154;2022-09-01T13:39:42;24.10;87.70
8459;DHT22;4266;48.816;9.154;2022-09-01T13:42:07;23.90;87.90
8459;DHT22;4266;48.816;9.154;2022-09-01T13:44:33;24.30;88.50
8459;DHT22;4266;48.816;9.154;2022-09-01T13:46:59;24.20;87.40
8459;DHT22;4266;48.816;9.154;2022-09-01T13:49:25;24.10;87.30
8459;DHT22;4266;48.816;9.154;2022-09-01T13:51:51;24.10;87.30
8459;DHT22;4266;48.816;9.154;2022-09-01T13:54:17;24.20;86.70
8459;DHT22;4266;48.816;9.154;2022-09-01T13:56:43;24.20;86.60
8459;DHT22;4266;48.816;9.154;2022-09-01T13:59:08;24.30;86.20
8459;DHT22;4266;48.816;9.154;2022-09-01T14:01:34;24.20;86.40
8459;DHT22;4266;48.816;9.154;2022-09-01T14:04:00;24.30;86.10
8459;DHT22;4266;48.816;9.154;2022-09-01T14:06:26;24.00;85.60
8459;DHT22;4266;48.816;9.154;2022-09-01T14:08:52;24.00;85.60
8459;DHT22;4266;48.816;9.154;2022-09-01T14:11:18;23.40;85.60
8459;DHT22;4266;48.816;9.154;2022-09-01T14:13:43;23.20;86.10
8459;DHT22;4266;48.816;9.154;2022-09-01T14:16:10;23.10;86.60
8459;DHT22;4266;48.816;9.154;2022-09-01T14:18:35;23.10;86.90
8459;DHT22;4266;48.816;9.154;2022-09-01T14:21:01;23.30;86.90
8459;DHT22;4266;48.816;9.154;2022-09-01T14:23:26;23.40;87.30
8459;DHT22;4266;48.816;9.154;2022-09-01T14:25:52;23.60;87.40
8459;DHT22;4266;48.816;9.154;2022-09-01T14:28:18;23.70;87.40
8459;DHT22;4266;48.816;9.154;2022-09-01T14:30:44;23.60;87.30
8459;DHT22;4266;48.816;9.154;2022-09-01T14:33:11;23.60;87.20
8459;DHT22;4266;48.816;9.154;2022-09-01T14:35:37;23.60;87.20
8459;DHT22;4266;48.816;9.154;2022-09-01T14:38:02;23.40;87.70
8459;DHT22;4266;48.816;9.154;2022-09-01T14:40:28;23.80;88.70
8459;DHT22;4266;48.816;9.154;2022-09-01T14:42:53;23.60;86.90
8459;DHT22;4266;48.816;9.154;2022-09-01T14:45:21;23.20;87.40
8459;DHT22;4266;48.816;9.154;2022-09-01T14:47:47;23.10;86.40
8459;DHT22;4266;48.816;9.154;2022-09-01T14:50:12;22.90;86.20
8459;DHT22;4266;48.816;9.154;2022-09-01T14:52:37;23.10;87.00
8459;DHT22;4266;48.816;9.154;2022-09-01T14:55:03;22.90;86.20
8459;DHT22;4266;48.816;9.154;2022-09-01T14:57:30;23.10;85.60
8459;DHT22;4266;48.816;9.154;2022-09-01T14:59:56;23.10;85.60
8459;DHT22;4266;48.816;9.154;2022-09-01T15:02:21;23.00;86.30
8459;DHT22;4266;48.816;9.154;2022-09-01T15:04:47;22.90;86.30
8459;DHT22;4266;48.816;9.154;2022-09-01T15:07:13;22.90;86.30
8459;DHT22;4266;48.816;9.154;2022-09-01T15:09:38;22.70;86.20
8459;DHT22;4266;48.816;9.154;2022-09-01T15:12:04;22.60;85.70
8459;DHT22;4266;48.816;9.154;2022-09-01T15:14:30;22.70;85.80
8459;DHT22;4266;48.816;9.154;2022-09-01T15:16:56;22.70;86.00
8459;DHT22;4266;48.816;9.154;2022-09-01T15:19:21;22.60;85.10
8459;DHT22;4266;48.816;9.154;2022-09-01T15:21:47;22.60;85.20
8459;DHT22;4266;48.816;9.154;2022-09-01T15:24:13;22.70;85.80
8459;DHT22;4266;48.816;9.154;2022-09-01T15:26:38;22.70;85.30
8459;DHT22;4266;48.816;9.154;2022-09-01T15:29:04;22.60;85.70
8459;DHT22;4266;48.816;9.154;2022-09-01T15:31:30;22.60;85.90
8459;DHT22;4266;48.816;9.154;2022-09-01T15:33:56;22.60;86.50
8459;DHT22;4266;48.816;9.154;2022-09-01T15:36:22;22.50;86.30
8459;DHT22;4266;48.816;9.154;2022-09-01T15:38:47;22.60;86.50
8459;DHT22;4266;48.816;9.154;2022-09-01T15:41:15;22.70;86.80
8459;DHT22;4266;48.816;9.154;2022-09-01T15:43:40;23.00;87.10
8459;DHT22;4266;48.816;9.154;2022-09-01T15:46:06;23.10;86.30
8459;DHT22;4266;48.816;9.154;2022-09-01T15:48:31;22.90;86.20
8459;DHT22;4266;48.816;9.154;2022-09-01T15:53:42;23.10;86.80
8459;DHT22;4266;48.816;9.154;2022-09-01T15:56:08;23.20;86.50
8459;DHT22;4266;48.816;9.154;2022-09-01T15:58:33;23.20;87.10
8459;DHT22;4266;48.816;9.154;2022-09-01T16:00:59;23.30;86.40
8459;DHT22;4266;48.816;9.154;2022-09-01T16:03:25;23.30;85.70
8459;DHT22;4266;48.816;9.154;2022-09-01T16:05:51;22.90;84.80
8459;DHT22;4266;48.816;9.154;2022-09-01T16:08:18;22.80;84.70
8459;DHT22;4266;48.816;9.154;2022-09-01T16:10:43;22.80;84.70
8459;DHT22;4266;48.816;9.154;2022-09-01T16:13:10;22.50;84.90